sensor_id;sensor_type;location;lat;lon;timestamp;temperature;humidity
41168;DHT22;26906;45.658;9.272;2022-12-18T05:33:26;7.90;99.90
41168;DHT22;26906;45.658;9.272;2022-12-18T05:35:53;8.10;99.90
41168;DHT22;26906;45.658;9.272;2022-12-18T05:38:20;8.00;99.90
41168;DHT22;26906;45.658;9.272;2022-12-18T05:40:47;8.00;99.90
41168;DHT22;26906;45.658;9.272;2022-12-18T05:43:14;7.90;99.90
41168;DHT22;26906;45.658;9.272;2022-12-18T05:45:40;8.00;99.90
41168;DHT22;26906;45.658;9.272;2022-12-18T05:48:07;7.90;99.90
41168;DHT22;26906;45.658;9.272;2022-12-18T05:50:37;7.80;99.90
41168;DHT22;26906;45.658;9.272;2022-12-18T05:53:04;8.00;99.90
41168;DHT22;26906;45.658;9.272;2022-12-18T05:55:38;7.80;99.90
41168;DHT22;26906;45.658;9.272;2022-12-18T05:58:05;7.80;99.90
41168;DHT22;26906;45.658;9.272;2022-12-18T06:00:31;8.10;99.90
41168;DHT22;26906;45.658;9.272;2022-12-18T06:02:57;7.90;99.90
41168;DHT22;26906;45.658;9.272;2022-12-18T06:05:23;7.90;99.90
41168;DHT22;26906;45.658;9.272;2022-12-18T06:07:49;8.20;99.90
41168;DHT22;26906;45.658;9.272;2022-12-18T06:10:15;7.90;99.90
41168;DHT22;26906;45.658;9.272;2022-12-18T06:12:40;7.90;99.90
41168;DHT22;26906;45.658;9.272;2022-12-18T06:15:06;7.90;99.90
41168;DHT22;26906;45.658;9.272;2022-12-18T06:17:33;7.60;99.90
41168;DHT22;26906;45.658;9.272;2022-12-18T06:19:58;7.90;99.90
41168;DHT22;26906;45.658;9.272;2022-12-18T06:22:24;7.70;99.90
41168;DHT22;26906;45.658;9.272;2022-12-18T06:24:50;7.90;99.90
41168;DHT22;26906;45.658;9.272;2022-12-18T06:27:15;8.30;99.90
41168;DHT22;26906;45.658;9.272;2022-12-18T06:29:41;7.90;99.90
41168;DHT22;26906;45.658;9.272;2022-12-18T06:32:07;7.80;99.90
41168;DHT22;26906;45.658;9.272;2022-12-18T06:34:34;7.80;99.90
41168;DHT22;26906;45.658;9.272;2022-12-18T06:37:02;8.10;99.90
41168;DHT22;26906;45.658;9.272;2022-12-18T06:39:27;7.80;99.90
41168;DHT22;26906;45.658;9.272;2022-12-18T06:41:53;7.70;99.90
41168;DHT22;26906;45.658;9.272;2022-12-18T06:44:19;8.10;99.90
41168;DHT22;26906;45.658;9.272;2022-12-18T06:46:45;7.60;99.90
41168;DHT22;26906;45.658;9.272;2022-12-18T06:49:10;8.00;99.90
41168;DHT22;26906;45.658;9.272;2022-12-18T06:51:36;7.60;99.90
41168;DHT22;26906;45.658;9.272;2022-12-18T06:54:02;7.70;99.90
41168;DHT22;26906;45.658;9.272;2022-12-18T06:56:29;7.70;99.90
41168;DHT22;26906;45.658;9.272;2022-12-18T06:58:54;7.70;99.90
41168;DHT22;26906;45.658;9.272;2022-12-18T07:01:20;7.70;99.90
41168;DHT22;26906;45.658;9.272;2022-12-18T07:03:47;7.80;99.90
41168;DHT22;26906;45.658;9.272;2022-12-18T07:06:18;7.60;99.90
41168;DHT22;26906;45.658;9.272;2022-12-18T07:08:45;7.70;99.90
41168;DHT22;26906;45.658;9.272;2022-12-18T07:11:11;7.60;99.90
41168;DHT22;26906;45.658;9.272;2022-12-18T07:13:37;7.70;99.90
41168;DHT22;26906;45.658;9.272;2022-12-18T07:16:07;7.80;99.90
41168;DHT22;26906;45.658;9.272;2022-12-18T07:18:33;7.70;99.90
41168;DHT22;26906;45.658;9.272;2022-12-18T07:21:03;7.60;99.90
41168;DHT22;26906;45.658;9.272;2022-12-18T07:23:31;7.70;99.90
41168;DHT22;26906;45.658;9.272;2022-12-18T07:26:03;7.60;99.90
41168;DHT22;26906;45.658;9.272;2022-12-18T07:28:29;7.70;99.90
41168;DHT22;26906;45.658;9.272;2022-12-18T07:30:56;7.70;99.90
41168;DHT22;26906;45.658;9.272;2022-12-18T07:33:22;7.80;99.90
41168;DHT22;26906;45.658;9.272;2022-12-18T07:35:47;7.80;99.90
41168;DHT22;26906;45.658;9.272;2022-12-18T07:38:13;8.10;99.90
41168;DHT22;26906;45.658;9.272;2022-12-18T07:40:39;7.90;99.90
41168;DHT22;26906;45.658;9.272;2022-12-18T07:43:04;8.10;99.90
41168;DHT22;26906;45.658;9.272;2022-12-18T07:45:30;7.90;99.90
41168;DHT22;26906;45.658;9.272;2022-12-18T07:47:56;7.90;99.90
41168;DHT22;26906;45.658;9.272;2022-12-18T07:50:21;7.90;99.90
41168;DHT22;26906;45.658;9.272;2022-12-18T07:52:47;7.90;99.90
41168;DHT22;26906;45.658;9.272;2022-12-18T07:55:13;7.90;99.90
41168;DHT22;26906;45.658;9.272;2022-12-18T07:57:39;7.90;99.90
41168;DHT22;26906;45.658;9.272;2022-12-18T08:00:05;8.00;99.90
41168;DHT22;26906;45.658;9.272;2022-12-18T08:02:37;8.00;99.90
41168;DHT22;26906;45.658;9.272;2022-12-18T08:05:03;8.00;99.90
41168;DHT22;26906;45.658;9.272;2022-12-18T08:07:29;8.00;99.90
41168;DHT22;26906;45.658;9.272;2022-12-18T08:09:55;8.00;99.90
41168;DHT22;26906;45.658;9.272;2022-12-18T08:12:21;8.10;99.90
41168;DHT22;26906;45.658;9.272;2022-12-18T08:14:46;8.20;99.90
41168;DHT22;26906;45.658;9.272;2022-12-18T08:17:12;8.40;99.90
41168;DHT22;26906;45.658;9.272;2022-12-18T08:19:38;8.10;99.90
41168;DHT22;26906;45.658;9.272;2022-12-18T08:22:05;8.10;99.90
41168;DHT22;26906;45.658;9.272;2022-12-18T08:24:31;8.00;99.90
41168;DHT22;26906;45.658;9.272;2022-12-18T08:26:56;8.00;99.90
41168;DHT22;26906;45.658;9.272;2022-12-18T08:29:22;8.00;99.90
41168;DHT22;26906;45.658;9.272;2022-12-18T08:31:48;8.00;99.90
41168;DHT22;26906;45.658;9.272;2022-12-18T08:34:14;8.20;99.90
41168;DHT22;26906;45.658;9.272;2022-12-18T08:36:40;8.30;99.90
41168;DHT22;26906;45.658;9.272;2022-12-18T08:39:06;8.20;99.90
41168;DHT22;26906;45.658;9.272;2022-12-18T08:41:31;8.40;99.90
41168;DHT22;26906;45.658;9.272;2022-12-18T08:43:57;8.30;99.90
41168;DHT22;26906;45.658;9.272;2022-12-18T08:46:43;8.30;99.90
41168;DHT22;26906;45.658;9.272;2022-12-18T08:49:10;8.30;99.90
41168;DHT22;26906;45.658;9.272;2022-12-18T08:51:37;8.50;99.90
41168;DHT22;26906;45.658;9.272;2022-12-18T08:54:04;8.50;99.90
41168;DHT22;26906;45.658;9.272;2022-12-18T08:56:30;8.60;99.90
41168;DHT22;26906;45.658;9.272;2022-12-18T08:58:56;8.60;99.90
41168;DHT22;26906;45.658;9.272;2022-12-18T09:01:22;8.70;99.90
41168;DHT22;26906;45.658;9.272;2022-12-18T09:03:49;8.70;99.90
41168;DHT22;26906;45.658;9.272;2022-12-18T09:06:19;8.70;99.90
41168;DHT22;26906;45.658;9.272;2022-12-18T09:08:45;8.70;99.90
41168;DHT22;26906;45.658;9.272;2022-12-18T09:11:21;8.80;99.90
41168;DHT22;26906;45.658;9.272;2022-12-18T09:13:48;8.80;99.90
41168;DHT22;26906;45.658;9.272;2022-12-18T09:16:14;8.80;99.90
41168;DHT22;26906;45.658;9.272;2022-12-18T09:18:39;8.80;99.90
41168;DHT22;26906;45.658;9.272;2022-12-18T09:21:10;8.70;99.90
41168;DHT22;26906;45.658;9.272;2022-12-18T09:23:36;8.70;99.90
41168;DHT22;26906;45.658;9.272;2022-12-18T09:26:01;8.80;99.90
41168;DHT22;26906;45.658;9.272;2022-12-18T09:28:27;8.90;99.90
41168;DHT22;26906;45.658;9.272;2022-12-18T09:30:53;9.00;99.90
41168;DHT22;26906;45.658;9.272;2022-12-18T09:33:18;9.00;99.90
41168;DHT22;26906;45.658;9.272;2022-12-18T09:35:45;9.20;99.90
41168;DHT22;26906;45.658;9.272;2022-12-18T09:38:18;9.00;99.90
41168;DHT22;26906;45.658;9.272;2022-12-18T09:40:50;9.00;99.90
41168;DHT22;26906;45.658;9.272;2022-12-18T09:46:07;9.00;99.90
41168;DHT22;26906;45.658;9.272;2022-12-18T09:48:42;9.10;99.90
41168;DHT22;26906;45.658;9.272;2022-12-18T09:51:20;9.10;99.90
41168;DHT22;26906;45.658;9.272;2022-12-18T09:53:55;9.20;99.90
41168;DHT22;26906;45.658;9.272;2022-12-18T09:56:23;9.30;99.90
41168;DHT22;26906;45.658;9.272;2022-12-18T09:58:59;9.30;99.90
41168;DHT22;26906;45.658;9.272;2022-12-18T10:01:26;9.30;99.90
41168;DHT22;26906;45.658;9.272;2022-12-18T10:03:53;9.40;99.90
41168;DHT22;26906;45.658;9.272;2022-12-18T10:06:38;9.50;99.90
41168;DHT22;26906;45.658;9.272;2022-12-18T10:10:01;9.60;99.90
41168;DHT22;26906;45.658;9.272;2022-12-18T10:15:22;9.80;99.90
41168;DHT22;26906;45.658;9.272;2022-12-18T10:20:43;9.80;99.90
41168;DHT22;26906;45.658;9.272;2022-12-18T10:23:27;9.70;99.90
41168;DHT22;26906;45.658;9.272;2022-12-18T10:26:02;9.80;99.90
41168;DHT22;26906;45.658;9.272;2022-12-18T10:28:31;9.90;99.90
41168;DHT22;26906;45.658;9.272;2022-12-18T10:30:57;10.00;99.90
41168;DHT22;26906;45.658;9.272;2022-12-18T10:33:28;10.10;99.90
41168;DHT22;26906;45.658;9.272;2022-12-18T10:35:54;10.20;99.90
41168;DHT22;26906;45.658;9.272;2022-12-18T10:38:27;10.30;99.90
41168;DHT22;26906;45.658;9.272;2022-12-18T10:43:32;10.50;99.90
41168;DHT22;26906;45.658;9.272;2022-12-18T10:51:24;10.50;99.90
41168;DHT22;26906;45.658;9.272;2022-12-18T10:54:02;10.40;99.90
41168;DHT22;26906;45.658;9.272;2022-12-18T10:56:30;10.30;99.90
41168;DHT22;26906;45.658;9.272;2022-12-18T10:59:04;10.30;99.90
41168;DHT22;26906;45.658;9.272;2022-12-18T11:04:22;10.70;99.90
41168;DHT22;26906;45.658;9.272;2022-12-18T11:07:01;10.80;99.90
41168;DHT22;26906;45.658;9.272;2022-12-18T11:09:40;10.60;99.90
41168;DHT22;26906;45.658;9.272;2022-12-18T11:12:14;10.70;99.90
41168;DHT22;26906;45.658;9.272;2022-12-18T11:14:49;10.70;99.90
41168;DHT22;26906;45.658;9.272;2022-12-18T11:17:21;10.70;99.90
41168;DHT22;26906;45.658;9.272;2022-12-18T11:19:58;10.60;99.90
41168;DHT22;26906;45.658;9.272;2022-12-18T11:22:30;10.70;99.90
41168;DHT22;26906;45.658;9.272;2022-12-18T11:27:38;10.70;99.90
41168;DHT22;26906;45.658;9.272;2022-12-18T11:32:55;10.70;99.90
41168;DHT22;26906;45.658;9.272;2022-12-18T11:40:38;10.70;99.90
41168;DHT22;26906;45.658;9.272;2022-12-18T11:43:18;10.60;99.90
41168;DHT22;26906;45.658;9.272;2022-12-18T11:46:05;10.80;99.90
41168;DHT22;26906;45.658;9.272;2022-12-18T11:48:37;11.10;99.90
41168;DHT22;26906;45.658;9.272;2022-12-18T11:51:08;11.50;99.90
41168;DHT22;26906;45.658;9.272;2022-12-18T11:53:37;11.80;99.90
41168;DHT22;26906;45.658;9.272;2022-12-18T11:56:36;11.90;99.90
41168;DHT22;26906;45.658;9.272;2022-12-18T12:00:23;12.00;99.90
41168;DHT22;26906;45.658;9.272;2022-12-18T12:02:28;11.80;99.90
41168;DHT22;26906;45.658;9.272;2022-12-18T12:08:17;11.90;99.90
41168;DHT22;26906;45.658;9.272;2022-12-18T12:13:44;12.10;99.90
41168;DHT22;26906;45.658;9.272;2022-12-18T12:16:27;12.30;99.90
41168;DHT22;26906;45.658;9.272;2022-12-18T12:24:56;12.30;99.90
41168;DHT22;26906;45.658;9.272;2022-12-18T12:28:01;12.40;99.90
41168;DHT22;26906;45.658;9.272;2022-12-18T12:30:43;12.50;99.90
41168;DHT22;26906;45.658;9.272;2022-12-18T12:36:08;12.50;99.90
41168;DHT22;26906;45.658;9.272;2022-12-18T12:38:43;12.50;99.90
41168;DHT22;26906;45.658;9.272;2022-12-18T12:41:17;12.40;99.90
41168;DHT22;26906;45.658;9.272;2022-12-18T12:44:07;12.20;99.90
41168;DHT22;26906;45.658;9.272;2022-12-18T12:46:37;12.00;99.90
41168;DHT22;26906;45.658;9.272;2022-12-18T12:49:14;11.70;99.90
41168;DHT22;26906;45.658;9.272;2022-12-18T12:51:43;11.50;99.90
41168;DHT22;26906;45.658;9.272;2022-12-18T12:54:16;11.30;99.90
41168;DHT22;26906;45.658;9.272;2022-12-18T12:56:53;11.20;99.90
41168;DHT22;26906;45.658;9.272;2022-12-18T12:59:45;11.10;99.90
41168;DHT22;26906;45.658;9.272;2022-12-18T13:08:12;10.80;99.90
41168;DHT22;26906;45.658;9.272;2022-12-18T13:10:47;10.80;99.90
41168;DHT22;26906;45.658;9.272;2022-12-18T13:13:14;10.70;99.90
41168;DHT22;26906;45.658;9.272;2022-12-18T13:18:25;10.80;99.90
41168;DHT22;26906;45.658;9.272;2022-12-18T13:21:04;10.80;99.90
41168;DHT22;26906;45.658;9.272;2022-12-18T13:23:36;10.80;99.90
41168;DHT22;26906;45.658;9.272;2022-12-18T13:36:42;11.20;99.90
41168;DHT22;26906;45.658;9.272;2022-12-18T13:39:24;11.30;99.90
41168;DHT22;26906;45.658;9.272;2022-12-18T13:42:31;11.30;99.90
41168;DHT22;26906;45.658;9.272;2022-12-18T13:45:37;11.30;99.90
41168;DHT22;26906;45.658;9.272;2022-12-18T13:48:03;11.20;99.90
41168;DHT22;26906;45.658;9.272;2022-12-18T13:50:29;11.20;99.90
41168;DHT22;26906;45.658;9.272;2022-12-18T13:52:55;11.20;99.90
41168;DHT22;26906;45.658;9.272;2022-12-18T13:55:22;11.20;99.90
41168;DHT22;26906;45.658;9.272;2022-12-18T13:57:48;11.30;99.90
41168;DHT22;26906;45.658;9.272;2022-12-18T14:00:27;11.40;99.90
41168;DHT22;26906;45.658;9.272;2022-12-18T14:02:55;11.50;99.90
41168;DHT22;26906;45.658;9.272;2022-12-18T14:05:28;11.40;99.90
41168;DHT22;26906;45.658;9.272;2022-12-18T14:08:10;11.40;99.90
41168;DHT22;26906;45.658;9.272;2022-12-18T14:10:43;11.40;99.90
41168;DHT22;26906;45.658;9.272;2022-12-18T14:13:15;11.30;99.90
41168;DHT22;26906;45.658;9.272;2022-12-18T14:15:44;11.30;99.90
41168;DHT22;26906;45.658;9.272;2022-12-18T14:18:24;11.20;99.90
41168;DHT22;26906;45.658;9.272;2022-12-18T14:20:56;11.20;99.90
41168;DHT22;26906;45.658;9.272;2022-12-18T14:25:57;11.20;99.90
41168;DHT22;26906;45.658;9.272;2022-12-18T14:28:22;11.30;99.90
41168;DHT22;26906;45.658;9.272;2022-12-18T14:30:48;11.10;99.90
41168;DHT22;26906;45.658;9.272;2022-12-18T14:33:16;11.00;99.90
41168;DHT22;26906;45.658;9.272;2022-12-18T14:36:01;10.90;99.90
41168;DHT22;26906;45.658;9.272;2022-12-18T14:38:38;10.90;99.90
41168;DHT22;26906;45.658;9.272;2022-12-18T14:41:10;10.80;99.90
41168;DHT22;26906;45.658;9.272;2022-12-18T14:43:38;10.70;99.90
41168;DHT22;26906;45.658;9.272;2022-12-18T14:46:24;10.80;99.90
41168;DHT22;26906;45.658;9.272;2022-12-18T14:48:51;10.70;99.90
41168;DHT22;26906;45.658;9.272;2022-12-18T14:51:19;10.60;99.90
41168;DHT22;26906;45.658;9.272;2022-12-18T14:53:54;10.50;99.90
41168;DHT22;26906;45.658;9.272;2022-12-18T14:56:23;10.50;99.90
41168;DHT22;26906;45.658;9.272;2022-12-18T15:01:29;10.60;99.90
41168;DHT22;26906;45.658;9.272;2022-12-18T15:03:57;10.40;99.90
41168;DHT22;26906;45.658;9.272;2022-12-18T15:08:52;10.20;99.90
41168;DHT22;26906;45.658;9.272;2022-12-18T15:11:54;10.30;99.90
41168;DHT22;26906;45.658;9.272;2022-12-18T15:14:28;10.30;99.90
41168;DHT22;26906;45.658;9.272;2022-12-18T15:16:58;10.20;99.90
41168;DHT22;26906;45.658;9.272;2022-12-18T15:21:59;10.10;99.90
41168;DHT22;26906;45.658;9.272;2022-12-18T15:24:29;10.00;99.90
41168;DHT22;26906;45.658;9.272;2022-12-18T15:26:56;9.70;99.90
41168;DHT22;26906;45.658;9.272;2022-12-18T15:29:22;9.70;99.90
41168;DHT22;26906;45.658;9.272;2022-12-18T15:32:02;9.80;99.90
41168;DHT22;26906;45.658;9.272;2022-12-18T15:34:29;9.60;99.90
41168;DHT22;26906;45.658;9.272;2022-12-18T15:36:55;9.50;99.90
41168;DHT22;26906;45.658;9.272;2022-12-18T15:39:20;9.60;99.90
41168;DHT22;26906;45.658;9.272;2022-12-18T15:41:46;9.50;99.90
41168;DHT22;26906;45.658;9.272;2022-12-18T15:44:31;9.40;99.90
41168;DHT22;26906;45.658;9.272;2022-12-18T15:46:57;9.30;99.90
41168;DHT22;26906;45.658;9.272;2022-12-18T15:49:23;9.30;99.90
41168;DHT22;26906;45.658;9.272;2022-12-18T15:51:52;9.20;99.90
41168;DHT22;26906;45.658;9.272;2022-12-18T15:54:19;9.10;99.90
41168;DHT22;26906;45.658;9.272;2022-12-18T15:57:09;9.10;99.90
41168;DHT22;26906;45.658;9.272;2022-12-18T15:59:51;9.00;99.90
41168;DHT22;26906;45.658;9.272;2022-12-18T16:02:18;9.10;99.90
41168;DHT22;26906;45.658;9.272;2022-12-18T16:04:45;8.90;99.90
41168;DHT22;26906;45.658;9.272;2022-12-18T16:07:11;9.10;99.90
41168;DHT22;26906;45.658;9.272;2022-12-18T16:09:37;8.70;99.90
41168;DHT22;26906;45.658;9.272;2022-12-18T16:12:05;8.70;99.90
41168;DHT22;26906;45.658;9.272;2022-12-18T16:14:32;8.60;99.90
41168;DHT22;26906;45.658;9.272;2022-12-18T16:17:04;8.50;99.90
41168;DHT22;26906;45.658;9.272;2022-12-18T16:19:30;8.40;99.90
41168;DHT22;26906;45.658;9.272;2022-12-18T16:21:58;8.30;99.90
41168;DHT22;26906;45.658;9.272;2022-12-18T16:24:26;8.30;99.90
41168;DHT22;26906;45.658;9.272;2022-12-18T16:26:52;8.30;99.90
41168;DHT22;26906;45.658;9.272;2022-12-18T16:29:19;8.20;99.90
41168;DHT22;26906;45.658;9.272;2022-12-18T16:31:50;8.10;99.90
41168;DHT22;26906;45.658;9.272;2022-12-18T16:36:52;8.20;99.90
41168;DHT22;26906;45.658;9.272;2022-12-18T16:39:19;8.10;99.90
41168;DHT22;26906;45.658;9.272;2022-12-18T16:41:45;8.00;99.90
41168;DHT22;26906;45.658;9.272;2022-12-18T16:44:11;8.20;99.90
41168;DHT22;26906;45.658;9.272;2022-12-18T16:46:38;8.10;99.90
41168;DHT22;26906;45.658;9.272;2022-12-18T16:49:04;7.90;99.90
41168;DHT22;26906;45.658;9.272;2022-12-18T16:51:30;7.90;99.90
41168;DHT22;26906;45.658;9.272;2022-12-18T16:53:56;7.90;99.90
41168;DHT22;26906;45.658;9.272;2022-12-18T16:56:22;7.80;99.90
41168;DHT22;26906;45.658;9.272;2022-12-18T16:58:51;7.80;99.90
41168;DHT22;26906;45.658;9.272;2022-12-18T17:01:16;7.70;99.90
41168;DHT22;26906;45.658;9.272;2022-12-18T17:03:42;8.10;99.90
41168;DHT22;26906;45.658;9.272;2022-12-18T17:06:08;7.80;99.90
41168;DHT22;26906;45.658;9.272;2022-12-18T17:08:34;7.50;99.90
41168;DHT22;26906;45.658;9.272;2022-12-18T17:11:06;7.50;99.90
41168;DHT22;26906;45.658;9.272;2022-12-18T17:13:32;7.50;99.90
41168;DHT22;26906;45.658;9.272;2022-12-18T17:16:02;7.40;99.90
41168;DHT22;26906;45.658;9.272;2022-12-18T17:18:29;7.70;99.90
41168;DHT22;26906;45.658;9.272;2022-12-18T17:21:01;7.40;99.90
41168;DHT22;26906;45.658;9.272;2022-12-18T17:23:28;8.20;99.90
41168;DHT22;26906;45.658;9.272;2022-12-18T17:25:55;7.40;99.90
41168;DHT22;26906;45.658;9.272;2022-12-18T17:28:22;7.30;99.90
41168;DHT22;26906;45.658;9.272;2022-12-18T17:30:48;7.70;99.90
41168;DHT22;26906;45.658;9.272;2022-12-18T17:33:13;7.80;99.90
41168;DHT22;26906;45.658;9.272;2022-12-18T17:35:39;7.50;99.90
41168;DHT22;26906;45.658;9.272;2022-12-18T17:38:04;7.70;99.90
41168;DHT22;26906;45.658;9.272;2022-12-18T17:40:32;7.40;99.90
41168;DHT22;26906;45.658;9.272;2022-12-18T17:42:58;7.30;99.90
41168;DHT22;26906;45.658;9.272;2022-12-18T17:45:24;7.60;99.90
41168;DHT22;26906;45.658;9.272;2022-12-18T17:47:50;7.30;99.90
41168;DHT22;26906;45.658;9.272;2022-12-18T17:50:16;7.10;99.90
41168;DHT22;26906;45.658;9.272;2022-12-18T17:52:42;7.00;99.90
41168;DHT22;26906;45.658;9.272;2022-12-18T17:55:08;7.00;99.90
41168;DHT22;26906;45.658;9.272;2022-12-18T17:57:34;7.10;99.90
41168;DHT22;26906;45.658;9.272;2022-12-18T18:00:02;7.20;99.90
41168;DHT22;26906;45.658;9.272;2022-12-18T18:02:35;7.60;99.90
41168;DHT22;26906;45.658;9.272;2022-12-18T18:05:00;7.00;99.90
41168;DHT22;26906;45.658;9.272;2022-12-18T18:07:26;6.90;99.90
41168;DHT22;26906;45.658;9.272;2022-12-18T18:09:51;6.80;99.90
41168;DHT22;26906;45.658;9.272;2022-12-18T18:12:17;7.50;99.90
41168;DHT22;26906;45.658;9.272;2022-12-18T18:15:01;6.70;99.90
41168;DHT22;26906;45.658;9.272;2022-12-18T18:17:27;6.70;99.90
41168;DHT22;26906;45.658;9.272;2022-12-18T18:19:53;6.80;99.90
41168;DHT22;26906;45.658;9.272;2022-12-18T18:22:18;6.80;99.90
41168;DHT22;26906;45.658;9.272;2022-12-18T18:24:45;7.00;99.90
41168;DHT22;26906;45.658;9.272;2022-12-18T18:27:11;6.60;99.90
41168;DHT22;26906;45.658;9.272;2022-12-18T18:29:37;6.60;99.90
41168;DHT22;26906;45.658;9.272;2022-12-18T18:32:04;6.60;99.90
41168;DHT22;26906;45.658;9.272;2022-12-18T18:34:31;6.60;99.90
41168;DHT22;26906;45.658;9.272;2022-12-18T18:36:56;6.80;99.90
41168;DHT22;26906;45.658;9.272;2022-12-18T18:39:22;6.70;99.90
41168;DHT22;26906;45.658;9.272;2022-12-18T18:41:48;7.00;99.90
41168;DHT22;26906;45.658;9.272;2022-12-18T18:44:18;6.80;99.90
41168;DHT22;26906;45.658;9.272;2022-12-18T18:46:45;6.80;99.90
41168;DHT22;26906;45.658;9.272;2022-12-18T18:49:12;7.10;99.90
41168;DHT22;26906;45.658;9.272;2022-12-18T18:51:39;7.10;99.90
41168;DHT22;26906;45.658;9.272;2022-12-18T18:54:05;7.00;99.90
41168;DHT22;26906;45.658;9.272;2022-12-18T18:56:30;7.00;99.90
41168;DHT22;26906;45.658;9.272;2022-12-18T18:58:57;7.20;99.90
41168;DHT22;26906;45.658;9.272;2022-12-18T19:01:24;7.20;99.90
41168;DHT22;26906;45.658;9.272;2022-12-18T19:03:51;7.10;99.90
41168;DHT22;26906;45.658;9.272;2022-12-18T19:06:25;7.20;99.90
41168;DHT22;26906;45.658;9.272;2022-12-18T19:08:53;7.30;99.90
41168;DHT22;26906;45.658;9.272;2022-12-18T19:11:21;7.60;99.90
41168;DHT22;26906;45.658;9.272;2022-12-18T19:14:08;7.20;99.90
41168;DHT22;26906;45.658;9.272;2022-12-18T19:16:34;7.50;99.90
41168;DHT22;26906;45.658;9.272;2022-12-18T19:19:00;7.30;99.90
41168;DHT22;26906;45.658;9.272;2022-12-18T19:21:27;7.30;99.90
41168;DHT22;26906;45.658;9.272;2022-12-18T19:23:53;7.30;99.90
41168;DHT22;26906;45.658;9.272;2022-12-18T19:26:19;7.40;99.90
41168;DHT22;26906;45.658;9.272;2022-12-18T19:28:45;7.40;99.90
41168;DHT22;26906;45.658;9.272;2022-12-18T19:31:13;7.30;99.90
41168;DHT22;26906;45.658;9.272;2022-12-18T19:33:41;7.40;99.90
41168;DHT22;26906;45.658;9.272;2022-12-18T19:38:45;7.30;99.90
41168;DHT22;26906;45.658;9.272;2022-12-18T19:41:11;7.20;99.90
41168;DHT22;26906;45.658;9.272;2022-12-18T19:43:38;7.40;99.90
41168;DHT22;26906;45.658;9.272;2022-12-18T19:46:08;7.20;99.90
41168;DHT22;26906;45.658;9.272;2022-12-18T19:48:35;7.40;99.90
41168;DHT22;26906;45.658;9.272;2022-12-18T19:51:06;7.70;99.90
41168;DHT22;26906;45.658;9.272;2022-12-18T19:53:32;7.40;99.90
41168;DHT22;26906;45.658;9.272;2022-12-18T19:55:57;7.40;99.90
41168;DHT22;26906;45.658;9.272;2022-12-18T19:58:24;7.50;99.90
41168;DHT22;26906;45.658;9.272;2022-12-18T20:00:50;7.50;99.90
41168;DHT22;26906;45.658;9.272;2022-12-18T20:03:16;7.50;99.90
41168;DHT22;26906;45.658;9.272;2022-12-18T20:05:41;7.50;99.90
41168;DHT22;26906;45.658;9.272;2022-12-18T20:08:07;7.70;99.90
41168;DHT22;26906;45.658;9.272;2022-12-18T20:10:32;7.50;99.90
41168;DHT22;26906;45.658;9.272;2022-12-18T20:12:58;7.60;99.90
41168;DHT22;26906;45.658;9.272;2022-12-18T20:15:24;7.50;99.90
41168;DHT22;26906;45.658;9.272;2022-12-18T20:17:49;7.50;99.90
41168;DHT22;26906;45.658;9.272;2022-12-18T20:20:15;7.50;99.90
41168;DHT22;26906;45.658;9.272;2022-12-18T20:22:41;7.50;99.90
41168;DHT22;26906;45.658;9.272;2022-12-18T20:25:07;7.40;99.90
41168;DHT22;26906;45.658;9.272;2022-12-18T20:27:36;7.50;99.90
